This is the latest recevied weather packets stored in our database for station/object KN1OBI-13. If no packets are shown the sender has not sent any weather packets the latest 10 day(s).
| Time | Temp. | Humidity | Pressure | Rain* | Wind** | Luminosity | Snow |
|---|---|---|---|---|---|---|---|
| 1788395192 | 19.44° C | 76% | 999.1 hPa | 0 mm | - | - | - |
| 1788394592 | 19.44° C | 77% | 999.1 hPa | 0 mm | - | - | - |
| 1788393992 | 19.44° C | 78% | 998.9 hPa | 0 mm | - | - | - |
| 1788393392 | 19.44° C | 78% | 999.2 hPa | 0 mm | - | - | - |
| 1788392792 | 20° C | 77% | 999.3 hPa | 0 mm | - | - | - |
| 1788392192 | 20° C | 77% | 999.5 hPa | 0 mm | - | - | - |
| 1788391592 | 20° C | 77% | 999.5 hPa | 0 mm | - | - | - |
| 1788390992 | 20° C | 76% | 1000 hPa | 0 mm | - | - | - |
| 1788390392 | 20.56° C | 74% | 1000.2 hPa | 0 mm | - | - | - |
| 1788389792 | 20.56° C | 74% | 1000.3 hPa | 0 mm | - | - | - |
| 1788389192 | 20.56° C | 75% | 1000 hPa | 0 mm | - | - | - |
| 1788388592 | 20.56° C | 75% | 1000 hPa | 0 mm | - | - | - |
| 1788387992 | 21.11° C | 75% | 1000.2 hPa | 0 mm | - | - | - |
| 1788387392 | 21.11° C | 75% | 1000.2 hPa | 0 mm | - | - | - |
| 1788386792 | 21.11° C | 74% | 1000.2 hPa | 0 mm | - | - | - |
| 1788386192 | 21.67° C | 72% | 1000.1 hPa | 0 mm | - | - | - |
| 1788385592 | 21.67° C | 72% | 999.8 hPa | 0 mm | - | - | - |
| 1788384992 | 22.22° C | 70% | 999.6 hPa | 0 mm | - | - | - |
| 1788384392 | 22.78° C | 70% | 999.5 hPa | 0 mm | - | - | - |
| 1788383792 | 22.78° C | 69% | 999.4 hPa | 0 mm | - | - | - |
| 1788383192 | 23.89° C | 68% | 999.2 hPa | 0 mm | - | - | - |
| 1788382592 | 23.89° C | 73% | 999.1 hPa | 0 mm | - | - | - |
| 1788381992 | 23.89° C | 72% | 999.1 hPa | 0 mm | - | - | - |
| 1788381392 | 22.78° C | 74% | 999.6 hPa | 0 mm | - | - | - |
| 1788380798 | 22.22° C | 75% | 999.8 hPa | 0 mm | - | - | - |
* Rain latest hour (hover to see other rain measurements)
** Current wind speed in m/s (hover to see current wind gust speed)